Time;durP1;ratioP1;P1;durP2;ratioP2;P2;SDS_P1;SDS_P2;PMS_P1;PMS_P2;Temp;Humidity;BMP_temperature;BMP_pressure;BME280_temperature;BME280_humidity;BME280_pressure;Samples;Min_cycle;Max_cycle;Signal;HPM_P1;HPM_P2
2024/01/29 00:01:24;;;;;;;5.55;3.47;;;5.90;99.90;;;;;;5000349;28;20361;-82
2024/01/29 00:03:50;;;;;;;4.82;2.45;;;6.30;99.90;;;;;;5012158;28;20056;-82
2024/01/29 00:06:16;;;;;;;7.78;2.58;;;6.60;99.90;;;;;;5012292;28;20045;-81
2024/01/29 00:08:41;;;;;;;5.95;2.80;;;6.40;99.90;;;;;;4994306;28;20061;-82
2024/01/29 00:11:07;;;;;;;5.72;2.97;;;5.40;99.90;;;;;;5020637;28;20037;-82
2024/01/29 00:13:33;;;;;;;6.78;3.03;;;5.30;99.90;;;;;;5012175;28;20404;-82
2024/01/29 00:15:59;;;;;;;5.22;3.20;;;5.30;99.90;;;;;;5011410;28;20124;-81
2024/01/29 00:18:25;;;;;;;5.68;3.13;;;5.30;99.90;;;;;;5012925;28;20041;-81
2024/01/29 00:20:51;;;;;;;4.88;2.88;;;5.30;99.90;;;;;;4995907;28;20038;-82
2024/01/29 00:23:16;;;;;;;6.30;2.83;;;5.30;99.90;;;;;;5000827;28;20123;-80
2024/01/29 00:25:42;;;;;;;5.90;3.03;;;5.30;99.90;;;;;;5012116;28;20045;-81
2024/01/29 00:28:08;;;;;;;8.02;3.05;;;5.30;99.90;;;;;;4994040;28;20050;-83
2024/01/29 00:30:33;;;;;;;6.35;2.70;;;6.40;99.90;;;;;;5007620;28;20489;-82
2024/01/29 00:32:59;;;;;;;10.48;3.25;;;5.20;99.90;;;;;;5012139;28;20120;-81
2024/01/29 00:35:25;;;;;;;6.55;3.42;;;5.50;99.90;;;;;;4994431;28;20116;-82
2024/01/29 00:37:51;;;;;;;8.18;3.35;;;5.60;99.90;;;;;;5011907;28;20073;-82
2024/01/29 00:40:17;;;;;;;6.82;3.15;;;5.80;99.90;;;;;;5011992;28;20069;-82
2024/01/29 00:42:43;;;;;;;4.75;2.65;;;5.60;99.90;;;;;;4982742;28;20096;-82
2024/01/29 00:45:09;;;;;;;5.13;2.72;;;6.20;99.90;;;;;;5011638;28;20582;-81
2024/01/29 00:47:34;;;;;;;8.88;2.95;;;5.00;99.90;;;;;;5010817;28;20044;-82
2024/01/29 00:50:00;;;;;;;6.55;3.20;;;5.00;99.90;;;;;;4993810;28;20045;-82
2024/01/29 00:52:26;;;;;;;6.30;2.85;;;5.50;99.90;;;;;;4977933;28;20050;-82
2024/01/29 00:54:51;;;;;;;5.97;3.28;;;5.00;99.90;;;;;;5001262;28;20048;-82
2024/01/29 00:57:17;;;;;;;6.97;3.40;;;4.90;99.90;;;;;;5011591;28;20065;-82
2024/01/29 00:59:43;;;;;;;7.18;2.92;;;6.00;99.90;;;;;;4993316;28;20049;-82
2024/01/29 01:02:08;;;;;;;6.88;3.30;;;5.70;99.90;;;;;;5011176;28;20051;-79
2024/01/29 01:04:34;;;;;;;6.30;3.40;;;4.90;99.90;;;;;;5013794;28;20074;-83
2024/01/29 01:07:00;;;;;;;7.20;3.00;;;4.90;99.90;;;;;;5012510;28;20046;-81
2024/01/29 01:09:25;;;;;;;5.47;3.03;;;4.90;99.90;;;;;;5011233;28;20396;-82
2024/01/29 01:11:51;;;;;;;9.63;3.58;;;5.80;99.90;;;;;;4993772;28;20153;-82
2024/01/29 01:14:16;;;;;;;6.72;3.17;;;5.40;99.90;;;;;;5014533;28;20041;-82
2024/01/29 01:16:42;;;;;;;8.40;3.00;;;5.90;99.90;;;;;;5016267;28;20045;-82
2024/01/29 01:19:08;;;;;;;9.68;4.07;;;4.80;99.90;;;;;;5010593;28;20045;-83
2024/01/29 01:21:34;;;;;;;7.15;3.10;;;4.70;99.90;;;;;;5011290;28;20034;-82
2024/01/29 01:23:59;;;;;;;7.50;3.30;;;4.70;99.90;;;;;;5010967;28;20049;-82
2024/01/29 01:26:25;;;;;;;6.47;3.25;;;4.60;99.90;;;;;;5007157;28;20045;-83
2024/01/29 01:28:50;;;;;;;8.27;3.22;;;5.70;99.90;;;;;;5011264;28;20050;-81
2024/01/29 01:31:16;;;;;;;6.60;3.00;;;4.60;99.90;;;;;;5011188;28;20042;-82
2024/01/29 01:33:42;;;;;;;7.20;2.95;;;4.50;99.90;;;;;;5011148;28;20404;-82
2024/01/29 01:36:07;;;;;;;7.07;3.40;;;5.60;99.90;;;;;;4993194;28;20046;-81
2024/01/29 01:38:33;;;;;;;8.35;3.22;;;4.40;99.90;;;;;;5017175;28;20033;-82
2024/01/29 01:40:59;;;;;;;6.50;3.17;;;5.60;99.90;;;;;;5010692;28;20054;-82
2024/01/29 01:43:24;;;;;;;7.88;3.47;;;4.40;99.90;;;;;;5010823;28;20057;-83
2024/01/29 01:46:06;;;;;;;6.80;3.80;;;5.60;99.90;;;;;;5010731;28;20515;-82
2024/01/29 01:48:35;;;;;;;7.75;3.33;;;4.30;99.90;;;;;;5013971;28;20081;-81
2024/01/29 01:51:02;;;;;;;7.68;3.40;;;5.00;99.90;;;;;;5010135;28;20121;-82
2024/01/29 01:53:32;;;;;;;7.43;3.78;;;4.80;99.90;;;;;;4992876;28;20081;-81
2024/01/29 01:56:01;;;;;;;6.57;3.13;;;4.90;99.90;;;;;;4985005;28;20050;-82
2024/01/29 01:58:27;;;;;;;8.38;4.00;;;4.80;99.90;;;;;;5017047;28;20412;-81
2024/01/29 02:00:55;;;;;;;8.43;3.30;;;4.90;99.90;;;;;;4992933;28;20408;-82
2024/01/29 02:03:21;;;;;;;7.75;3.50;;;4.20;99.90;;;;;;5010284;28;20473;-83
2024/01/29 02:05:47;;;;;;;10.48;3.60;;;4.20;99.90;;;;;;5010345;28;20053;-82
2024/01/29 02:08:15;;;;;;;6.22;3.60;;;4.10;99.90;;;;;;5011051;28;20084;-81
2024/01/29 02:10:40;;;;;;;8.93;3.33;;;4.50;99.90;;;;;;5011052;28;20034;-82
2024/01/29 02:13:13;;;;;;;8.35;3.35;;;4.10;99.90;;;;;;5011355;28;20511;-82
2024/01/29 02:15:39;;;;;;;7.72;3.53;;;4.60;99.90;;;;;;5010329;28;20481;-82
2024/01/29 02:18:05;;;;;;;9.85;4.22;;;4.80;99.90;;;;;;4976638;28;20053;-80
2024/01/29 02:20:35;;;;;;;10.10;4.30;;;4.10;99.90;;;;;;5016096;28;20052;-82
2024/01/29 02:23:01;;;;;;;7.18;3.58;;;4.10;99.90;;;;;;5010327;28;20037;-82
2024/01/29 02:25:26;;;;;;;7.22;3.63;;;4.10;99.90;;;;;;5002636;28;20046;-82
2024/01/29 02:27:52;;;;;;;7.43;3.70;;;4.90;99.90;;;;;;5010960;28;20668;-81
2024/01/29 02:30:18;;;;;;;6.03;3.38;;;4.10;99.90;;;;;;4993669;28;20052;-82
2024/01/29 02:32:44;;;;;;;7.70;3.55;;;4.10;99.90;;;;;;4992849;28;20042;-82
2024/01/29 02:35:10;;;;;;;8.45;3.88;;;5.20;99.90;;;;;;4993013;28;20942;-81
2024/01/29 02:37:35;;;;;;;7.43;3.75;;;4.30;99.90;;;;;;5010344;28;20129;-82
2024/01/29 02:40:02;;;;;;;10.30;3.85;;;4.10;99.90;;;;;;5012285;28;20085;-82
2024/01/29 02:42:28;;;;;;;11.30;3.72;;;4.00;99.90;;;;;;5001613;28;20050;-81
2024/01/29 02:44:54;;;;;;;5.93;3.60;;;5.10;99.90;;;;;;4992656;28;20107;-82
2024/01/29 02:47:19;;;;;;;8.45;3.85;;;5.30;99.90;;;;;;5010038;28;20084;-82
2024/01/29 02:49:45;;;;;;;6.95;3.70;;;4.20;99.90;;;;;;4998034;28;20048;-82
2024/01/29 02:52:11;;;;;;;8.05;3.90;;;3.90;99.90;;;;;;5024937;28;20091;-83
2024/01/29 02:54:37;;;;;;;7.40;3.83;;;3.90;99.90;;;;;;5019372;28;20056;-83
2024/01/29 02:57:06;;;;;;;8.40;3.53;;;3.90;99.90;;;;;;4999475;28;20409;-82
2024/01/29 02:59:32;;;;;;;7.10;3.70;;;4.90;99.90;;;;;;5014064;28;20095;-84
2024/01/29 03:01:59;;;;;;;6.93;3.58;;;3.80;99.90;;;;;;5013319;28;20128;-83
2024/01/29 03:04:25;;;;;;;8.13;4.03;;;3.80;99.90;;;;;;5017755;28;20045;-81
2024/01/29 03:06:51;;;;;;;7.57;3.97;;;4.50;99.90;;;;;;5014608;28;20396;-83
2024/01/29 03:09:17;;;;;;;9.05;3.65;;;4.40;99.90;;;;;;4995808;28;20034;-83
2024/01/29 03:11:46;;;;;;;7.90;4.00;;;4.90;99.90;;;;;;5012973;28;20060;-82
2024/01/29 03:14:11;;;;;;;8.77;3.85;;;3.80;99.90;;;;;;5017709;28;20041;-82
2024/01/29 03:16:37;;;;;;;7.65;3.78;;;4.90;99.90;;;;;;5017494;28;20052;-82
2024/01/29 03:19:03;;;;;;;8.73;4.03;;;4.20;99.90;;;;;;5013388;28;20097;-83
2024/01/29 03:21:28;;;;;;;8.15;3.67;;;4.80;99.90;;;;;;5013267;28;20052;-82
2024/01/29 03:23:55;;;;;;;7.63;4.05;;;3.80;99.90;;;;;;5013103;28;20034;-83
2024/01/29 03:26:21;;;;;;;8.48;4.10;;;3.80;99.90;;;;;;5014290;28;20049;-81
2024/01/29 03:28:46;;;;;;;7.63;3.60;;;3.90;99.90;;;;;;5012293;28;20388;-81
2024/01/29 03:31:12;;;;;;;12.07;4.30;;;3.80;99.90;;;;;;4994786;28;20050;-82
2024/01/29 03:33:38;;;;;;;9.85;4.00;;;4.80;99.90;;;;;;4995487;28;20074;-82
2024/01/29 03:36:05;;;;;;;5.53;3.42;;;3.90;99.90;;;;;;4996088;28;20042;-82
2024/01/29 03:38:30;;;;;;;8.13;3.60;;;3.80;99.90;;;;;;5021266;28;20166;-82
2024/01/29 03:40:56;;;;;;;8.73;3.92;;;3.80;99.90;;;;;;5012645;28;20503;-81
2024/01/29 03:43:22;;;;;;;5.72;3.38;;;4.70;99.90;;;;;;5012011;28;20125;-84
2024/01/29 03:45:47;;;;;;;7.68;4.13;;;4.80;99.90;;;;;;5020836;28;20041;-82
2024/01/29 03:48:13;;;;;;;9.43;4.22;;;4.00;99.90;;;;;;5014319;28;20505;-82
2024/01/29 03:50:39;;;;;;;8.40;4.10;;;3.80;99.90;;;;;;4996465;28;20128;-81
2024/01/29 03:53:04;;;;;;;10.57;4.03;;;3.80;99.90;;;;;;5012742;28;20551;-82
2024/01/29 03:55:30;;;;;;;8.80;4.20;;;5.00;99.90;;;;;;5012671;28;20042;-82
2024/01/29 03:57:55;;;;;;;6.22;3.90;;;3.70;99.90;;;;;;4978887;28;20087;-82
2024/01/29 04:00:23;;;;;;;9.43;4.20;;;4.00;99.90;;;;;;4993657;28;20048;-81
2024/01/29 04:02:49;;;;;;;6.10;4.10;;;3.80;99.90;;;;;;4987046;28;20088;-81
2024/01/29 04:05:16;;;;;;;8.18;4.25;;;3.80;99.90;;;;;;5006792;28;20046;-81
2024/01/29 04:07:42;;;;;;;7.57;4.43;;;3.80;99.90;;;;;;4996974;28;20378;-79
2024/01/29 04:10:08;;;;;;;8.88;4.22;;;3.80;99.90;;;;;;5018553;28;20115;-82
2024/01/29 04:12:34;;;;;;;8.95;4.60;;;3.80;99.90;;;;;;5011895;28;20034;-81
2024/01/29 04:14:59;;;;;;;7.63;4.45;;;5.00;99.90;;;;;;4994633;28;20045;-81
2024/01/29 04:17:25;;;;;;;7.63;4.07;;;3.80;99.90;;;;;;5012114;28;20539;-82
2024/01/29 04:19:51;;;;;;;8.05;4.68;;;4.30;99.90;;;;;;5012168;28;20120;-81
2024/01/29 04:22:17;;;;;;;6.72;4.45;;;3.70;99.90;;;;;;5010993;28;20085;-83
2024/01/29 04:24:43;;;;;;;8.45;4.70;;;4.80;99.90;;;;;;4993499;28;20084;-81
2024/01/29 04:27:08;;;;;;;8.35;3.80;;;3.60;99.90;;;;;;4994748;28;20053;-86
2024/01/29 04:29:34;;;;;;;9.80;4.60;;;3.60;99.90;;;;;;5012318;28;20096;-90
2024/01/29 04:31:59;;;;;;;8.85;4.20;;;4.50;99.90;;;;;;4995068;28;20520;-91
2024/01/29 04:34:25;;;;;;;9.93;4.55;;;3.50;99.90;;;;;;5010662;28;20045;-83
2024/01/29 04:36:51;;;;;;;8.35;4.15;;;3.40;99.90;;;;;;5011803;28;20030;-82
2024/01/29 04:39:16;;;;;;;10.38;4.03;;;3.40;99.90;;;;;;4993956;28;20116;-83
2024/01/29 04:41:42;;;;;;;8.98;4.13;;;4.10;99.90;;;;;;4994328;28;20480;-82
2024/01/29 04:44:08;;;;;;;8.48;4.65;;;3.70;99.90;;;;;;5011669;28;20107;-80
2024/01/29 04:46:33;;;;;;;10.45;4.75;;;4.00;99.90;;;;;;4994265;28;20073;-82
2024/01/29 04:48:59;;;;;;;9.93;4.70;;;4.30;99.90;;;;;;5010604;28;20509;-80
2024/01/29 04:51:26;;;;;;;7.68;4.45;;;3.30;99.90;;;;;;4993756;28;20057;-80
2024/01/29 04:53:52;;;;;;;8.88;4.72;;;4.20;99.90;;;;;;5011487;28;20389;-82
2024/01/29 04:56:18;;;;;;;8.27;4.55;;;3.30;99.90;;;;;;4993805;28;20052;-82
2024/01/29 04:58:45;;;;;;;8.10;4.50;;;3.70;99.90;;;;;;4993822;28;20046;-82
2024/01/29 05:01:10;;;;;;;9.25;4.40;;;3.40;99.90;;;;;;4997575;28;20674;-84
2024/01/29 05:03:36;;;;;;;7.38;4.30;;;3.50;99.90;;;;;;5013070;28;20113;-82
2024/01/29 05:06:02;;;;;;;9.68;4.93;;;4.70;99.90;;;;;;4993311;28;20042;-82
2024/01/29 05:08:28;;;;;;;9.15;4.60;;;3.50;99.90;;;;;;5011269;28;20141;-83
2024/01/29 05:10:53;;;;;;;11.00;4.47;;;3.50;99.90;;;;;;4992358;28;20519;-81
2024/01/29 05:13:19;;;;;;;9.65;4.85;;;3.40;99.90;;;;;;4993363;28;20057;-81
2024/01/29 05:15:45;;;;;;;9.07;4.88;;;3.50;99.90;;;;;;5010857;28;20042;-81
2024/01/29 05:18:11;;;;;;;7.78;4.60;;;3.50;99.90;;;;;;4994375;28;20061;-82
2024/01/29 05:20:38;;;;;;;7.43;4.28;;;3.50;99.90;;;;;;4992480;28;20049;-81
2024/01/29 05:23:04;;;;;;;9.82;5.10;;;3.60;99.90;;;;;;5012570;28;20484;-81
2024/01/29 05:25:30;;;;;;;8.40;4.65;;;4.60;99.90;;;;;;5016522;28;20054;-82
2024/01/29 05:27:56;;;;;;;11.45;5.00;;;4.70;99.90;;;;;;5012437;28;20061;-81
2024/01/29 05:30:22;;;;;;;9.15;4.85;;;3.50;99.90;;;;;;5010828;28;20045;-82
2024/01/29 05:32:47;;;;;;;12.65;5.03;;;3.50;99.90;;;;;;4996897;28;20038;-82
2024/01/29 05:35:13;;;;;;;8.00;4.82;;;4.10;99.90;;;;;;4978861;28;20505;-82
2024/01/29 05:37:39;;;;;;;7.43;4.35;;;3.50;99.90;;;;;;4993604;28;20473;-81
2024/01/29 05:40:05;;;;;;;9.10;5.03;;;4.30;99.90;;;;;;5011692;28;20108;-81
2024/01/29 05:42:31;;;;;;;7.32;4.50;;;3.50;99.90;;;;;;5013857;28;20050;-82
2024/01/29 05:44:57;;;;;;;9.80;4.85;;;3.40;99.90;;;;;;4997074;28;20058;-83
2024/01/29 05:47:23;;;;;;;7.93;4.70;;;3.40;99.90;;;;;;5011961;28;20168;-82
2024/01/29 05:49:49;;;;;;;8.18;4.82;;;3.40;99.90;;;;;;5010533;28;20046;-82
2024/01/29 05:52:15;;;;;;;10.63;5.30;;;4.40;99.90;;;;;;4992253;28;20630;-81
2024/01/29 05:54:41;;;;;;;10.48;5.43;;;3.40;99.90;;;;;;5010407;28;20121;-82
2024/01/29 05:57:10;;;;;;;9.88;5.38;;;3.40;99.90;;;;;;4994591;28;20045;-82
2024/01/29 05:59:38;;;;;;;11.27;5.57;;;3.40;99.90;;;;;;5010490;28;20068;-81
2024/01/29 06:02:04;;;;;;;9.07;4.97;;;3.40;99.90;;;;;;4992359;28;20072;-82
2024/01/29 06:04:29;;;;;;;11.10;5.78;;;3.40;99.90;;;;;;5018318;28;20046;-83
2024/01/29 06:06:55;;;;;;;10.23;5.63;;;3.40;99.90;;;;;;4998313;28;20041;-81
2024/01/29 06:09:22;;;;;;;10.75;6.15;;;3.40;99.90;;;;;;5009755;28;20049;-82
2024/01/29 06:11:49;;;;;;;9.30;5.35;;;3.50;99.90;;;;;;4993417;28;20046;-82
2024/01/29 06:14:15;;;;;;;9.70;5.15;;;3.60;99.90;;;;;;5010434;28;20038;-80
2024/01/29 06:16:43;;;;;;;11.60;4.85;;;4.80;99.90;;;;;;4992562;28;20519;-82
2024/01/29 06:19:14;;;;;;;10.18;5.05;;;3.50;99.90;;;;;;5002041;28;20045;-84
2024/01/29 06:21:40;;;;;;;9.52;5.13;;;3.50;99.90;;;;;;4992879;28;20542;-84
2024/01/29 06:24:05;;;;;;;8.50;5.47;;;4.70;99.90;;;;;;4992120;28;20121;-83
2024/01/29 06:26:31;;;;;;;8.57;5.03;;;4.50;99.90;;;;;;5010326;28;20077;-84
2024/01/29 06:28:58;;;;;;;9.98;5.18;;;3.30;99.90;;;;;;5010310;28;20700;-83
2024/01/29 06:31:24;;;;;;;8.40;5.40;;;3.50;99.90;;;;;;4995967;28;20111;-81
2024/01/29 06:33:53;;;;;;;9.38;5.20;;;3.40;99.90;;;;;;4996641;28;20101;-84
2024/01/29 06:36:19;;;;;;;7.75;5.18;;;3.40;99.90;;;;;;5014065;28;20054;-81
2024/01/29 06:38:44;;;;;;;8.98;5.57;;;3.50;99.90;;;;;;5014114;28;20044;-83
2024/01/29 06:41:20;;;;;;;11.50;5.55;;;3.40;99.90;;;;;;5013595;28;20141;-82
2024/01/29 06:43:46;;;;;;;9.30;5.43;;;4.40;99.90;;;;;;4996651;28;20045;-82
2024/01/29 06:46:12;;;;;;;10.43;5.93;;;3.40;99.90;;;;;;5014256;28;20056;-82
2024/01/29 06:48:37;;;;;;;8.60;5.60;;;3.40;99.90;;;;;;5015400;28;20116;-82
2024/01/29 06:51:04;;;;;;;9.73;5.88;;;3.40;99.90;;;;;;5018412;28;20096;-86
2024/01/29 06:53:30;;;;;;;10.18;5.78;;;3.40;99.90;;;;;;5013920;28;20060;-83
2024/01/29 06:55:59;;;;;;;10.38;5.78;;;3.90;99.90;;;;;;5013666;28;20121;-81
2024/01/29 06:58:27;;;;;;;9.85;5.75;;;4.20;99.90;;;;;;4996116;28;20460;-82
2024/01/29 07:00:54;;;;;;;10.57;5.53;;;3.40;99.90;;;;;;5000376;28;20045;-82
2024/01/29 07:03:20;;;;;;;11.88;6.50;;;3.40;99.90;;;;;;5003376;28;20100;-81
2024/01/29 07:05:48;;;;;;;11.27;5.97;;;4.20;99.90;;;;;;5018238;28;20076;-83
2024/01/29 07:08:13;;;;;;;10.27;5.90;;;4.40;99.90;;;;;;4995784;28;20085;-82
2024/01/29 07:10:39;;;;;;;11.75;5.38;;;3.30;99.90;;;;;;5013202;28;20096;-83
2024/01/29 07:13:05;;;;;;;9.68;5.38;;;3.30;99.90;;;;;;5012793;28;20045;-82
2024/01/29 07:15:31;;;;;;;13.77;6.20;;;3.30;99.90;;;;;;5013326;28;20034;-82
2024/01/29 07:17:57;;;;;;;9.13;5.82;;;3.40;99.90;;;;;;4995370;28;20050;-81
2024/01/29 07:20:22;;;;;;;8.88;5.78;;;3.30;99.90;;;;;;4995407;28;20440;-83
2024/01/29 07:22:48;;;;;;;13.02;6.18;;;3.30;99.90;;;;;;5013476;28;20088;-82
2024/01/29 07:25:14;;;;;;;8.68;5.35;;;3.90;99.90;;;;;;5013167;28;20116;-82
2024/01/29 07:27:39;;;;;;;9.85;5.78;;;4.30;99.90;;;;;;4979455;28;20139;-83
2024/01/29 07:30:06;;;;;;;9.95;6.00;;;3.70;99.90;;;;;;5012784;28;20050;-82
2024/01/29 07:32:31;;;;;;;12.82;5.97;;;3.40;99.90;;;;;;4995405;28;20056;-82
2024/01/29 07:35:00;;;;;;;10.52;5.97;;;3.30;99.90;;;;;;5012922;28;20121;-82
2024/01/29 07:37:29;;;;;;;11.57;5.75;;;3.40;99.90;;;;;;5005011;28;20069;-82
2024/01/29 07:39:56;;;;;;;12.52;5.55;;;3.30;99.90;;;;;;4995114;28;20086;-82
2024/01/29 07:42:22;;;;;;;11.98;6.40;;;3.30;99.90;;;;;;5012392;28;20149;-82
2024/01/29 07:44:48;;;;;;;12.50;6.50;;;4.60;99.90;;;;;;5006815;28;20121;-82
2024/01/29 07:47:14;;;;;;;11.68;6.47;;;3.30;99.90;;;;;;4997464;28;20081;-82
2024/01/29 07:49:40;;;;;;;11.15;5.47;;;3.40;99.90;;;;;;4995967;28;20049;-83
2024/01/29 07:52:06;;;;;;;10.75;6.07;;;4.20;99.90;;;;;;5016893;28;20073;-81
2024/01/29 07:54:32;;;;;;;11.05;6.40;;;3.30;99.90;;;;;;5012297;28;20046;-82
2024/01/29 07:56:57;;;;;;;10.68;6.53;;;3.40;99.90;;;;;;5012454;28;20080;-82
2024/01/29 07:59:23;;;;;;;9.68;6.07;;;3.40;99.90;;;;;;5012176;28;20114;-81
2024/01/29 08:01:49;;;;;;;10.20;5.78;;;3.30;99.90;;;;;;4994391;28;20132;-82
2024/01/29 08:04:15;;;;;;;12.10;5.95;;;3.40;99.90;;;;;;5014946;28;20046;-82
2024/01/29 08:06:40;;;;;;;11.95;5.95;;;3.40;99.90;;;;;;5012017;28;20042;-82
2024/01/29 08:09:06;;;;;;;10.93;6.40;;;3.60;99.90;;;;;;5011860;28;20060;-82
2024/01/29 08:11:32;;;;;;;11.73;6.35;;;3.50;99.90;;;;;;4994581;28;20054;-83
2024/01/29 08:13:58;;;;;;;13.25;6.72;;;3.50;99.90;;;;;;5019160;28;20038;-82
2024/01/29 08:16:24;;;;;;;13.55;6.82;;;3.50;99.90;;;;;;5005202;28;20049;-82
2024/01/29 08:18:51;;;;;;;11.07;6.60;;;4.70;99.90;;;;;;4994148;28;20137;-80
2024/01/29 08:21:17;;;;;;;12.82;6.85;;;3.50;99.90;;;;;;5011775;28;20049;-82
2024/01/29 08:23:43;;;;;;;12.45;6.78;;;3.60;99.90;;;;;;4977386;28;20050;-81
2024/01/29 08:26:08;;;;;;;11.52;6.70;;;3.60;99.90;;;;;;5016503;28;20038;-82
2024/01/29 08:28:35;;;;;;;12.05;6.32;;;3.60;99.90;;;;;;4993467;28;20057;-81
2024/01/29 08:31:01;;;;;;;13.00;7.43;;;3.70;99.90;;;;;;5011664;28;20049;-82
2024/01/29 08:33:28;;;;;;;10.88;6.55;;;4.70;99.90;;;;;;5011140;28;20057;-81
2024/01/29 08:35:55;;;;;;;12.60;6.70;;;3.90;99.90;;;;;;4993816;28;20046;-83
2024/01/29 08:38:20;;;;;;;11.23;6.47;;;3.80;99.90;;;;;;4986461;28;20839;-83
2024/01/29 08:40:47;;;;;;;13.80;7.00;;;4.70;99.90;;;;;;5013341;28;20132;-82
2024/01/29 08:43:13;;;;;;;10.43;7.13;;;3.80;99.90;;;;;;5011668;28;20069;-82
2024/01/29 08:45:39;;;;;;;11.45;6.93;;;3.90;99.90;;;;;;4993925;28;20045;-81
2024/01/29 08:48:05;;;;;;;11.48;7.10;;;3.90;99.90;;;;;;5011295;28;20045;-82
2024/01/29 08:50:31;;;;;;;16.55;7.25;;;4.00;99.90;;;;;;5010917;28;20045;-81
2024/01/29 08:52:56;;;;;;;13.45;7.45;;;5.10;99.90;;;;;;4999875;28;20100;-81
2024/01/29 08:55:22;;;;;;;11.73;6.82;;;4.10;99.90;;;;;;5011304;28;20081;-82
2024/01/29 08:57:48;;;;;;;11.63;7.00;;;4.10;99.90;;;;;;5011291;28;20045;-83
2024/01/29 09:00:15;;;;;;;13.05;6.85;;;5.30;99.90;;;;;;5011198;28;20137;-83
2024/01/29 09:02:41;;;;;;;15.25;7.40;;;4.10;99.90;;;;;;5013647;28;20041;-84
2024/01/29 09:05:08;;;;;;;13.93;7.70;;;4.90;99.90;;;;;;4993177;28;20096;-82
2024/01/29 09:07:34;;;;;;;12.75;7.18;;;4.20;99.90;;;;;;4993696;28;20053;-82
2024/01/29 09:09:59;;;;;;;12.07;7.18;;;4.70;99.90;;;;;;5017815;28;20042;-82
2024/01/29 09:12:25;;;;;;;13.82;7.13;;;5.40;99.90;;;;;;5015787;28;20038;-85
2024/01/29 09:14:51;;;;;;;13.68;7.40;;;5.00;99.90;;;;;;5014554;28;20071;-83
2024/01/29 09:17:16;;;;;;;13.70;7.53;;;4.40;99.90;;;;;;5000020;28;20046;-82
2024/01/29 09:19:45;;;;;;;13.18;7.45;;;4.40;99.90;;;;;;5011251;28;20047;-82
2024/01/29 09:22:11;;;;;;;15.65;8.00;;;5.60;99.90;;;;;;5004148;28;20501;-84
2024/01/29 09:24:37;;;;;;;17.20;7.68;;;4.60;99.90;;;;;;4993622;28;20385;-82
2024/01/29 09:27:02;;;;;;;13.63;8.30;;;4.60;99.90;;;;;;5010561;28;20125;-83
2024/01/29 09:29:28;;;;;;;11.88;7.70;;;5.10;99.90;;;;;;5011508;28;20044;-82
2024/01/29 09:31:54;;;;;;;13.32;7.97;;;5.60;99.90;;;;;;4996277;28;20053;-84
2024/01/29 09:34:20;;;;;;;12.90;7.63;;;5.10;99.90;;;;;;5010304;28;20103;-82
2024/01/29 09:36:46;;;;;;;13.80;8.32;;;4.80;99.90;;;;;;4992284;28;20088;-82
2024/01/29 09:39:12;;;;;;;12.23;7.95;;;5.00;99.90;;;;;;5010736;28;20077;-83
2024/01/29 09:41:42;;;;;;;15.05;7.97;;;5.00;99.90;;;;;;5009134;28;20104;-83
2024/01/29 09:44:09;;;;;;;12.43;7.40;;;5.90;99.90;;;;;;5013893;28;20096;-85
2024/01/29 09:46:38;;;;;;;13.18;8.10;;;5.00;99.90;;;;;;4993467;28;20080;-83
2024/01/29 09:49:05;;;;;;;13.95;8.65;;;5.20;99.90;;;;;;4993133;28;20046;-81
2024/01/29 09:51:32;;;;;;;12.07;7.65;;;6.50;99.90;;;;;;5010479;28;20072;-82
2024/01/29 09:53:59;;;;;;;12.68;8.13;;;6.30;99.90;;;;;;5010012;28;20129;-81
2024/01/29 09:56:25;;;;;;;13.48;8.15;;;5.60;99.90;;;;;;5010608;28;20046;-83
2024/01/29 09:58:51;;;;;;;12.93;7.85;;;6.10;99.90;;;;;;4995369;28;20100;-82
2024/01/29 10:01:20;;;;;;;15.63;8.40;;;5.50;99.90;;;;;;5010579;28;20085;-84
2024/01/29 10:03:46;;;;;;;14.15;8.43;;;6.60;99.90;;;;;;5010422;28;20488;-83
2024/01/29 10:06:12;;;;;;;17.75;8.95;;;6.70;99.90;;;;;;5012973;28;20045;-82
2024/01/29 10:08:39;;;;;;;12.43;8.40;;;5.70;99.90;;;;;;4996156;28;20548;-82
2024/01/29 10:11:05;;;;;;;14.90;8.30;;;5.90;99.90;;;;;;5014058;28;20057;-82
2024/01/29 10:13:31;;;;;;;12.73;7.82;;;6.50;99.90;;;;;;5014408;28;20539;-86
2024/01/29 10:15:58;;;;;;;15.73;9.20;;;6.10;99.90;;;;;;5013938;28;20088;-83
2024/01/29 10:18:24;;;;;;;13.68;8.20;;;6.60;99.90;;;;;;5014480;28;20085;-83
2024/01/29 10:21:04;;;;;;;13.50;8.48;;;6.20;99.90;;;;;;5014219;28;20093;-82
2024/01/29 10:23:29;;;;;;;13.18;8.85;;;6.20;99.90;;;;;;4996696;28;20054;-83
2024/01/29 10:25:56;;;;;;;14.30;9.77;;;7.50;99.90;;;;;;4995890;28;20115;-83
2024/01/29 10:28:26;;;;;;;17.85;9.73;;;7.50;99.90;;;;;;4996434;28;20081;-84
2024/01/29 10:30:54;;;;;;;18.02;9.45;;;7.40;99.90;;;;;;4995857;28;20053;-85
2024/01/29 10:33:21;;;;;;;18.75;9.40;;;7.50;99.90;;;;;;5005799;28;20046;-82
2024/01/29 10:35:47;;;;;;;16.55;9.90;;;6.60;99.90;;;;;;5013768;28;20085;-84
2024/01/29 10:38:15;;;;;;;18.35;9.48;;;7.20;99.90;;;;;;5013742;28;20074;-81
2024/01/29 10:40:41;;;;;;;17.05;10.27;;;6.70;99.90;;;;;;5004666;28;20455;-82
2024/01/29 10:43:12;;;;;;;17.20;10.10;;;6.90;99.90;;;;;;5033541;28;20045;-80
2024/01/29 10:45:40;;;;;;;19.52;10.38;;;7.60;99.90;;;;;;5033512;28;20488;-80
2024/01/29 10:48:15;;;;;;;16.38;9.63;;;8.00;99.90;;;;;;5023922;28;20111;-81
2024/01/29 10:50:42;;;;;;;19.85;10.13;;;6.80;99.90;;;;;;5017509;28;20526;-82
2024/01/29 10:53:11;;;;;;;16.27;10.00;;;7.30;99.90;;;;;;5033658;28;20045;-83
2024/01/29 10:55:37;;;;;;;15.30;9.30;;;7.90;99.90;;;;;;5020533;28;20049;-82
2024/01/29 10:58:04;;;;;;;16.55;10.68;;;8.00;99.90;;;;;;5032655;28;20045;-84
2024/01/29 11:00:31;;;;;;;17.38;10.75;;;7.60;99.90;;;;;;5032965;28;20093;-81
2024/01/29 11:02:58;;;;;;;16.55;10.45;;;7.10;99.90;;;;;;5032974;28;20120;-82
2024/01/29 11:05:25;;;;;;;16.75;10.55;;;8.10;99.90;;;;;;5033557;28;20079;-80
2024/01/29 11:07:54;;;;;;;18.98;10.48;;;8.20;99.90;;;;;;5033108;28;20049;-81
2024/01/29 11:10:24;;;;;;;15.80;10.23;;;7.20;99.90;;;;;;5032967;28;20049;-81
2024/01/29 11:12:53;;;;;;;16.33;9.43;;;7.60;99.90;;;;;;5014610;28;20119;-81
2024/01/29 11:15:19;;;;;;;18.02;10.10;;;7.20;99.90;;;;;;5032683;28;20041;-81
2024/01/29 11:17:45;;;;;;;15.45;10.50;;;8.10;99.90;;;;;;5014249;28;20091;-80
2024/01/29 11:20:13;;;;;;;15.45;10.38;;;7.30;99.90;;;;;;5033241;28;20049;-82
2024/01/29 11:22:41;;;;;;;24.10;10.90;;;7.30;99.90;;;;;;5032936;28;20041;-79
2024/01/29 11:25:11;;;;;;;15.93;10.63;;;8.10;99.90;;;;;;5034517;28;20049;-80
2024/01/29 11:27:38;;;;;;;16.42;10.35;;;7.30;99.90;;;;;;5032616;28;20088;-82
2024/01/29 11:30:31;;;;;;;15.85;9.95;;;7.30;99.90;;;;;;5031969;28;20515;-80
2024/01/29 11:33:14;;;;;;;16.42;10.02;;;8.40;99.90;;;;;;5028587;28;20108;-80
2024/01/29 11:35:41;;;;;;;19.98;10.93;;;7.40;99.90;;;;;;5014814;28;20500;-79
2024/01/29 11:38:13;;;;;;;18.75;11.18;;;8.50;99.90;;;;;;5033526;28;20439;-81
2024/01/29 11:40:41;;;;;;;17.50;9.85;;;7.40;99.90;;;;;;5005329;28;20066;-80
2024/01/29 11:43:20;;;;;;;18.90;11.00;;;7.50;99.90;;;;;;5012644;28;20056;-79
2024/01/29 11:45:48;;;;;;;20.00;10.98;;;7.50;99.90;;;;;;5012194;28;20052;-79
2024/01/29 11:48:15;;;;;;;16.13;10.95;;;8.40;99.90;;;;;;4995770;28;20188;-78
2024/01/29 11:50:46;;;;;;;24.77;12.13;;;7.60;99.90;;;;;;5012340;28;20056;-80
2024/01/29 11:53:14;;;;;;;21.88;12.13;;;7.60;99.90;;;;;;5012264;28;20502;-80
2024/01/29 11:55:40;;;;;;;21.20;11.50;;;8.30;99.90;;;;;;5012141;28;20073;-80
2024/01/29 11:58:15;;;;;;;25.13;11.50;;;7.70;99.90;;;;;;5012220;28;20173;-79
2024/01/29 12:00:41;;;;;;;;;;;7.70;99.90;;;;;;4995829;28;20054;-80
2024/01/29 12:03:12;;;;;;;34.35;13.68;;;7.70;99.90;;;;;;4998369;28;19932;-81
2024/01/29 12:05:38;;;;;;;25.02;13.20;;;7.70;99.90;;;;;;5001891;28;20053;-81
2024/01/29 12:08:13;;;;;;;29.30;13.25;;;8.30;99.90;;;;;;4994259;28;20056;-81
2024/01/29 12:10:39;;;;;;;27.88;13.38;;;7.80;99.90;;;;;;4994555;28;20056;-82
2024/01/29 12:13:10;;;;;;;29.05;13.65;;;8.80;99.90;;;;;;4996002;28;20049;-81
2024/01/29 12:15:35;;;;;;;26.67;13.60;;;8.80;99.90;;;;;;5011964;28;20485;-81
2024/01/29 12:18:07;;;;;;;28.08;13.57;;;8.60;99.90;;;;;;5011237;28;20049;-81
2024/01/29 12:20:34;;;;;;;27.13;13.93;;;7.70;99.90;;;;;;4994341;28;20488;-82
2024/01/29 12:23:00;;;;;;;28.40;13.55;;;8.30;99.90;;;;;;5011505;28;20058;-81
2024/01/29 12:25:26;;;;;;;30.77;13.85;;;8.80;99.90;;;;;;4994400;28;20125;-81
2024/01/29 12:28:05;;;;;;;27.83;12.80;;;7.70;99.90;;;;;;5010672;28;20125;-82
2024/01/29 12:30:31;;;;;;;26.15;13.15;;;8.20;99.90;;;;;;4994835;28;20520;-82
2024/01/29 12:32:56;;;;;;;26.95;14.00;;;8.80;99.90;;;;;;4993504;28;20050;-82
2024/01/29 12:35:30;;;;;;;26.95;12.57;;;7.90;99.90;;;;;;5011177;28;20092;-81
2024/01/29 12:38:11;;;;;;;26.13;12.75;;;7.80;99.90;;;;;;5017765;28;20168;-81
2024/01/29 12:40:39;;;;;;;27.17;14.07;;;7.90;99.90;;;;;;4999179;28;20145;-81
2024/01/29 12:43:06;;;;;;;32.30;14.63;;;8.90;99.90;;;;;;5039665;28;20064;-81
2024/01/29 12:45:32;;;;;;;34.58;14.98;;;8.80;99.90;;;;;;5024815;28;20044;-81
2024/01/29 12:48:12;;;;;;;31.83;14.55;;;7.80;99.90;;;;;;5024787;28;20848;-81